createdAt,value
2017-11-20T00:00:50.960Z,979.59
2017-11-20T00:01:50.944Z,979.60
2017-11-20T00:02:50.924Z,979.58
2017-11-20T00:03:50.916Z,979.53
2017-11-20T00:04:50.893Z,979.52
2017-11-20T00:05:50.884Z,979.47
2017-11-20T00:06:50.856Z,979.47
2017-11-20T00:07:50.845Z,979.53
2017-11-20T00:08:50.828Z,979.49
2017-11-20T00:09:50.812Z,979.48
2017-11-20T00:10:50.794Z,979.49
2017-11-20T00:11:50.778Z,979.45
2017-11-20T00:12:50.755Z,979.46
2017-11-20T00:13:50.734Z,979.47
2017-11-20T00:14:50.718Z,979.47
2017-11-20T00:15:50.707Z,979.49
2017-11-20T00:16:50.685Z,979.52
2017-11-20T00:17:50.674Z,979.55
2017-11-20T00:18:50.657Z,979.56
2017-11-20T00:19:50.637Z,979.59
2017-11-20T00:20:50.617Z,979.60
2017-11-20T00:21:50.599Z,979.52
2017-11-20T00:22:50.585Z,979.52
2017-11-20T00:23:50.566Z,979.51
2017-11-20T00:24:50.557Z,979.50
2017-11-20T00:25:50.536Z,979.50
2017-11-20T00:26:50.515Z,979.50
2017-11-20T00:27:50.501Z,979.51
2017-11-20T00:28:50.484Z,979.53
2017-11-20T00:29:50.462Z,979.49
2017-11-20T00:30:50.448Z,979.51
2017-11-20T00:31:50.434Z,979.51
2017-11-20T00:32:50.415Z,979.50
2017-11-20T00:33:50.392Z,979.46
2017-11-20T00:34:50.387Z,979.43
2017-11-20T00:35:50.363Z,979.42
2017-11-20T00:36:50.348Z,979.42
2017-11-20T00:37:50.334Z,979.39
2017-11-20T00:38:50.314Z,979.40
2017-11-20T00:39:50.288Z,979.35
2017-11-20T00:40:50.274Z,979.35
2017-11-20T00:41:50.255Z,979.33
2017-11-20T00:42:50.242Z,979.31
2017-11-20T00:43:50.229Z,979.29
2017-11-20T00:44:50.210Z,979.31
2017-11-20T00:45:50.203Z,979.30
2017-11-20T00:46:50.185Z,979.27
2017-11-20T00:47:50.150Z,979.25
2017-11-20T00:48:50.135Z,979.30
2017-11-20T00:49:50.120Z,979.32
2017-11-20T00:50:50.098Z,979.30
2017-11-20T00:51:50.081Z,979.30
2017-11-20T00:52:50.064Z,979.28
2017-11-20T00:53:50.055Z,979.25
2017-11-20T00:54:50.031Z,979.23
2017-11-20T00:55:50.013Z,979.21
2017-11-20T00:56:50.000Z,979.19
2017-11-20T00:57:49.978Z,979.23
2017-11-20T00:58:49.963Z,979.21
2017-11-20T00:59:49.950Z,979.25
2017-11-20T01:00:49.926Z,979.28
2017-11-20T01:01:49.921Z,979.28
2017-11-20T01:02:49.892Z,979.26
2017-11-20T01:03:49.876Z,979.28
2017-11-20T01:04:49.862Z,979.19
2017-11-20T01:05:49.848Z,979.19
2017-11-20T01:06:49.823Z,979.19
2017-11-20T01:07:49.812Z,979.25
2017-11-20T01:08:49.797Z,979.24
2017-11-20T01:09:49.775Z,979.24
2017-11-20T01:10:49.758Z,979.28
2017-11-20T01:11:49.752Z,979.30
2017-11-20T01:12:49.723Z,979.28
2017-11-20T01:13:49.712Z,979.28
2017-11-20T01:14:49.693Z,979.24
2017-11-20T01:15:49.673Z,979.29
2017-11-20T01:16:49.667Z,979.21
2017-11-20T01:17:49.643Z,979.24
2017-11-20T01:18:49.636Z,979.22
2017-11-20T01:19:49.604Z,979.21
2017-11-20T01:20:49.586Z,979.20
2017-11-20T01:21:49.565Z,979.22
2017-11-20T01:22:49.552Z,979.20
2017-11-20T01:23:49.536Z,979.27
2017-11-20T01:24:49.516Z,979.25
2017-11-20T01:25:49.497Z,979.26
2017-11-20T01:26:49.480Z,979.30
2017-11-20T01:27:49.477Z,979.29
2017-11-20T01:28:49.455Z,979.30
2017-11-20T01:29:49.435Z,979.37
2017-11-20T01:30:49.418Z,979.32
2017-11-20T01:31:49.393Z,979.32
2017-11-20T01:32:49.378Z,979.31
2017-11-20T01:33:49.366Z,979.31
2017-11-20T01:34:49.341Z,979.29
2017-11-20T01:35:49.326Z,979.31
2017-11-20T01:36:49.308Z,979.25
2017-11-20T01:37:49.294Z,979.26
2017-11-20T01:38:49.279Z,979.24
2017-11-20T01:39:49.261Z,979.24
2017-11-20T01:40:49.238Z,979.27
2017-11-20T01:41:49.227Z,979.26
2017-11-20T01:42:49.214Z,979.27
2017-11-20T01:43:49.188Z,979.27
2017-11-20T01:44:49.176Z,979.25
2017-11-20T01:45:49.154Z,979.29
2017-11-20T01:46:49.143Z,979.28
2017-11-20T01:47:49.147Z,979.28
2017-11-20T01:48:49.102Z,979.28
2017-11-20T01:49:49.099Z,979.28
2017-11-20T01:50:49.064Z,979.27
2017-11-20T01:51:49.064Z,979.29
2017-11-20T01:52:49.044Z,979.30
2017-11-20T01:53:49.022Z,979.28
2017-11-20T01:54:49.005Z,979.29
2017-11-20T01:55:48.989Z,979.22
2017-11-20T01:56:48.961Z,979.18
2017-11-20T01:57:48.943Z,979.17
2017-11-20T01:58:48.935Z,979.11
2017-11-20T01:59:48.908Z,979.15
2017-11-20T02:00:48.900Z,979.07
2017-11-20T02:01:48.877Z,979.10
2017-11-20T02:02:48.861Z,979.09
2017-11-20T02:03:48.839Z,979.09
2017-11-20T02:04:48.825Z,979.10
2017-11-20T02:05:48.810Z,979.10
2017-11-20T02:06:48.794Z,979.08
2017-11-20T02:07:48.782Z,979.10
2017-11-20T02:08:48.751Z,979.10
2017-11-20T02:09:48.734Z,979.07
2017-11-20T02:10:48.723Z,979.08
2017-11-20T02:11:48.711Z,979.10
2017-11-20T02:12:48.695Z,979.09
2017-11-20T02:13:48.669Z,979.13
2017-11-20T02:14:48.653Z,979.11
2017-11-20T02:15:48.626Z,979.11
2017-11-20T02:16:48.611Z,979.15
2017-11-20T02:17:48.591Z,979.10
2017-11-20T02:18:48.588Z,979.09
2017-11-20T02:19:48.558Z,979.10
2017-11-20T02:20:48.538Z,979.08
2017-11-20T02:21:48.525Z,979.10
2017-11-20T02:22:48.503Z,979.11
2017-11-20T02:23:48.494Z,979.12
2017-11-20T02:24:48.480Z,979.12
2017-11-20T02:25:48.457Z,979.09
2017-11-20T02:26:48.438Z,979.05
2017-11-20T02:27:48.421Z,979.05
2017-11-20T02:28:48.408Z,978.99
2017-11-20T02:29:48.402Z,978.94
2017-11-20T02:30:48.362Z,978.94
2017-11-20T02:31:48.346Z,978.96
2017-11-20T02:32:48.328Z,978.96
2017-11-20T02:33:48.317Z,978.99
2017-11-20T02:34:48.295Z,979.00
2017-11-20T02:35:48.282Z,979.06
2017-11-20T02:36:48.272Z,979.10
2017-11-20T02:37:48.242Z,979.15
2017-11-20T02:38:48.222Z,979.11
2017-11-20T02:39:48.206Z,979.12
2017-11-20T02:40:48.205Z,979.10
2017-11-20T02:41:48.169Z,979.07
2017-11-20T02:42:48.151Z,979.07
2017-11-20T02:43:48.136Z,979.06
2017-11-20T02:44:48.117Z,979.02
2017-11-20T02:45:48.098Z,979.04
2017-11-20T02:46:48.081Z,978.94
2017-11-20T02:47:48.076Z,978.99
2017-11-20T02:48:48.057Z,978.96
2017-11-20T02:49:48.030Z,978.97
2017-11-20T02:50:48.022Z,978.93
2017-11-20T02:51:48.000Z,978.94
2017-11-20T02:52:47.985Z,978.94
2017-11-20T02:53:47.961Z,978.95
2017-11-20T02:54:47.943Z,978.95
2017-11-20T02:55:47.924Z,978.95
2017-11-20T02:56:47.915Z,978.92
2017-11-20T02:57:47.898Z,978.95
2017-11-20T02:58:47.871Z,978.94
2017-11-20T02:59:47.858Z,978.95
2017-11-20T03:00:47.861Z,978.95
2017-11-20T03:01:47.824Z,978.93
2017-11-20T03:02:47.803Z,978.96
2017-11-20T03:03:47.784Z,978.91
2017-11-20T03:04:47.770Z,978.91
2017-11-20T03:05:47.754Z,978.90
2017-11-20T03:06:47.740Z,978.88
2017-11-20T03:07:47.719Z,978.85
2017-11-20T03:08:47.698Z,978.78
2017-11-20T03:09:47.683Z,978.76
2017-11-20T03:10:47.671Z,978.76
2017-11-20T03:11:47.651Z,978.75
2017-11-20T03:12:47.636Z,978.74
2017-11-20T03:13:47.618Z,978.70
2017-11-20T03:14:47.592Z,978.76
2017-11-20T03:15:47.588Z,978.73
2017-11-20T03:16:47.560Z,978.74
2017-11-20T03:17:47.540Z,978.71
2017-11-20T03:18:47.523Z,978.73
2017-11-20T03:19:47.505Z,978.72
2017-11-20T03:20:47.490Z,978.73
2017-11-20T03:21:47.471Z,978.72
2017-11-20T03:22:47.462Z,978.69
2017-11-20T03:23:47.441Z,978.64
2017-11-20T03:24:47.420Z,978.67
2017-11-20T03:25:47.414Z,978.59
2017-11-20T03:26:47.389Z,978.60
2017-11-20T03:27:47.379Z,978.57
2017-11-20T03:28:47.349Z,978.53
2017-11-20T03:29:47.337Z,978.54
2017-11-20T03:30:47.317Z,978.54
2017-11-20T03:31:47.296Z,978.56
2017-11-20T03:32:47.284Z,978.58
2017-11-20T03:33:47.259Z,978.62
2017-11-20T03:34:47.253Z,978.67
2017-11-20T03:35:47.226Z,978.67
2017-11-20T03:36:47.212Z,978.71
2017-11-20T03:37:47.200Z,978.70
2017-11-20T03:38:47.187Z,978.73
2017-11-20T03:39:47.161Z,978.72
2017-11-20T03:40:47.140Z,978.75
2017-11-20T03:41:47.127Z,978.71
2017-11-20T03:42:47.105Z,978.76
2017-11-20T03:43:47.087Z,978.78
2017-11-20T03:44:47.068Z,978.79
2017-11-20T03:45:47.052Z,978.78
2017-11-20T03:46:47.045Z,978.77
2017-11-20T03:47:47.036Z,978.76
2017-11-20T03:48:47.007Z,978.82
2017-11-20T03:49:46.982Z,978.81
2017-11-20T03:50:46.966Z,978.84
2017-11-20T03:51:46.948Z,978.87
2017-11-20T03:52:46.932Z,978.88
2017-11-20T03:53:46.916Z,978.82
2017-11-20T03:54:46.902Z,978.83
2017-11-20T03:55:46.885Z,978.86
2017-11-20T03:56:46.862Z,978.89
2017-11-20T03:57:46.843Z,978.83
2017-11-20T03:58:46.845Z,978.78
2017-11-20T03:59:46.807Z,978.82
2017-11-20T04:00:46.790Z,978.80
2017-11-20T04:01:46.778Z,978.82
2017-11-20T04:02:46.755Z,978.84
2017-11-20T04:03:46.744Z,978.85
2017-11-20T04:04:46.722Z,978.85
2017-11-20T04:05:46.705Z,978.83
2017-11-20T04:06:46.691Z,978.76
2017-11-20T04:07:46.674Z,978.79
2017-11-20T04:08:46.653Z,978.77
2017-11-20T04:09:46.644Z,978.78
2017-11-20T04:10:46.624Z,978.77
2017-11-20T04:11:46.599Z,978.75
2017-11-20T04:12:46.587Z,978.80
2017-11-20T04:13:46.565Z,978.81
2017-11-20T04:14:46.545Z,978.81
2017-11-20T04:15:46.534Z,978.84
2017-11-20T04:16:46.522Z,978.86
2017-11-20T04:17:46.511Z,978.88
2017-11-20T04:18:46.485Z,978.80
2017-11-20T04:19:46.463Z,978.83
2017-11-20T04:20:46.448Z,978.78
2017-11-20T04:21:46.429Z,978.78
2017-11-20T04:22:46.414Z,978.76
2017-11-20T04:23:46.390Z,978.77
2017-11-20T04:24:46.380Z,978.76
2017-11-20T04:25:46.357Z,978.78
2017-11-20T04:26:46.356Z,978.76
2017-11-20T04:27:46.321Z,978.77
2017-11-20T04:28:46.311Z,978.79
2017-11-20T04:29:46.286Z,978.78
2017-11-20T04:30:46.273Z,978.78
2017-11-20T04:31:46.251Z,978.79
2017-11-20T04:32:46.234Z,978.75
2017-11-20T04:33:46.235Z,978.79
2017-11-20T04:34:46.199Z,978.79
2017-11-20T04:35:46.182Z,978.81
2017-11-20T04:36:46.162Z,978.85
2017-11-20T04:37:46.153Z,978.83
2017-11-20T04:38:46.136Z,978.86
2017-11-20T04:39:46.111Z,978.84
2017-11-20T04:40:46.094Z,978.88
2017-11-20T04:41:46.084Z,978.90
2017-11-20T04:42:46.061Z,978.86
2017-11-20T04:43:46.043Z,978.85
2017-11-20T04:44:46.024Z,978.86
2017-11-20T04:45:46.008Z,978.87
2017-11-20T04:46:46.004Z,978.85
2017-11-20T04:47:45.971Z,978.84
2017-11-20T04:48:45.960Z,978.80
2017-11-20T04:49:45.946Z,978.82
2017-11-20T04:50:45.922Z,978.80
2017-11-20T04:51:45.905Z,978.80
2017-11-20T04:52:45.900Z,978.80
2017-11-20T04:53:45.877Z,978.80
2017-11-20T04:54:45.851Z,978.77
2017-11-20T04:55:45.839Z,978.77
2017-11-20T04:56:45.825Z,978.78
2017-11-20T04:57:45.800Z,978.68
2017-11-20T04:58:45.782Z,978.70
2017-11-20T04:59:45.764Z,978.73
2017-11-20T05:00:45.761Z,978.70
2017-11-20T05:01:45.731Z,978.71
2017-11-20T05:02:45.724Z,978.66
2017-11-20T05:03:45.703Z,978.69
2017-11-20T05:04:45.686Z,978.68
2017-11-20T05:05:45.668Z,978.67
2017-11-20T05:06:45.651Z,978.67
2017-11-20T05:07:45.638Z,978.67
2017-11-20T05:08:45.612Z,978.61
2017-11-20T05:09:45.599Z,978.61
2017-11-20T05:10:45.577Z,978.60
2017-11-20T05:11:45.558Z,978.65
2017-11-20T05:12:45.550Z,978.63
2017-11-20T05:13:45.523Z,978.62
2017-11-20T05:14:45.505Z,978.63
2017-11-20T05:15:45.489Z,978.64
2017-11-20T05:16:45.473Z,978.66
2017-11-20T05:17:45.453Z,978.62
2017-11-20T05:18:45.442Z,978.60
2017-11-20T05:19:45.420Z,978.61
2017-11-20T05:20:45.404Z,978.62
2017-11-20T05:21:45.386Z,978.64
2017-11-20T05:22:45.373Z,978.57
2017-11-20T05:23:45.358Z,978.59
2017-11-20T05:24:45.335Z,978.61
2017-11-20T05:25:45.323Z,978.58
2017-11-20T05:26:45.315Z,978.57
2017-11-20T05:27:45.288Z,978.61
2017-11-20T05:28:45.267Z,978.60
2017-11-20T05:29:45.256Z,978.59
2017-11-20T05:30:45.234Z,978.63
2017-11-20T05:31:45.224Z,978.68
2017-11-20T05:32:45.210Z,978.68
2017-11-20T05:33:45.185Z,978.71
2017-11-20T05:34:45.162Z,978.71
2017-11-20T05:35:45.146Z,978.61
2017-11-20T05:36:45.130Z,978.68
2017-11-20T05:37:45.111Z,978.65
2017-11-20T05:38:45.093Z,978.60
2017-11-20T05:39:45.080Z,978.60
2017-11-20T05:40:45.068Z,978.65
2017-11-20T05:41:45.041Z,978.66
2017-11-20T05:42:45.034Z,978.64
2017-11-20T05:43:45.010Z,978.64
2017-11-20T05:44:45.001Z,978.68
2017-11-20T05:45:44.982Z,978.65
2017-11-20T05:46:44.958Z,978.60
2017-11-20T05:47:44.953Z,978.66
2017-11-20T05:48:44.922Z,978.65
2017-11-20T05:49:44.913Z,978.67
2017-11-20T05:50:44.895Z,978.65
2017-11-20T05:51:44.885Z,978.67
2017-11-20T05:52:44.856Z,978.63
2017-11-20T05:53:44.837Z,978.61
2017-11-20T05:54:44.825Z,978.59
2017-11-20T05:55:44.810Z,978.59
2017-11-20T05:56:44.791Z,978.64
2017-11-20T05:57:44.774Z,978.64
2017-11-20T05:58:44.756Z,978.67
2017-11-20T05:59:44.758Z,978.72
2017-11-20T06:00:44.715Z,978.74
2017-11-20T06:01:44.707Z,978.76
2017-11-20T06:02:44.681Z,978.71
2017-11-20T06:03:44.677Z,978.73
2017-11-20T06:04:44.658Z,978.76
2017-11-20T06:05:44.629Z,978.74
2017-11-20T06:06:44.621Z,978.72
2017-11-20T06:07:44.608Z,978.73
2017-11-20T06:08:44.594Z,978.70
2017-11-20T06:09:44.581Z,978.67
2017-11-20T06:10:44.579Z,978.71
2017-11-20T06:11:44.539Z,978.69
2017-11-20T06:12:44.528Z,978.71
2017-11-20T06:13:44.496Z,978.68
2017-11-20T06:14:44.481Z,978.69
2017-11-20T06:15:44.470Z,978.69
2017-11-20T06:16:44.449Z,978.72
2017-11-20T06:17:44.424Z,978.71
2017-11-20T06:18:44.409Z,978.74
2017-11-20T06:19:44.398Z,978.80
2017-11-20T06:20:44.384Z,978.80
2017-11-20T06:21:44.356Z,978.75
2017-11-20T06:22:44.347Z,978.78
2017-11-20T06:23:44.336Z,978.79
2017-11-20T06:24:44.312Z,978.80
2017-11-20T06:25:44.288Z,978.78
2017-11-20T06:26:44.297Z,978.80
2017-11-20T06:27:44.253Z,978.78
2017-11-20T06:28:44.236Z,978.78
2017-11-20T06:29:44.217Z,978.85
2017-11-20T06:30:44.205Z,978.89
2017-11-20T06:31:44.183Z,978.90
2017-11-20T06:32:44.166Z,978.94
2017-11-20T06:33:44.166Z,978.94
2017-11-20T06:34:44.137Z,978.94
2017-11-20T06:35:44.113Z,979.00
2017-11-20T06:36:44.097Z,979.02
2017-11-20T06:37:44.080Z,979.00
2017-11-20T06:38:44.060Z,978.99
2017-11-20T06:39:44.055Z,979.00
2017-11-20T06:40:44.026Z,979.01
2017-11-20T06:41:44.016Z,979.00
2017-11-20T06:42:43.998Z,979.00
2017-11-20T06:43:43.976Z,979.00
2017-11-20T06:44:43.959Z,978.98
2017-11-20T06:45:43.944Z,978.98
2017-11-20T06:46:43.933Z,979.01
2017-11-20T06:47:43.905Z,978.98
2017-11-20T06:48:43.889Z,978.99
2017-11-20T06:49:43.876Z,978.99
2017-11-20T06:50:43.853Z,979.02
2017-11-20T06:51:43.840Z,979.05
2017-11-20T06:52:43.829Z,979.00
2017-11-20T06:53:43.809Z,979.00
2017-11-20T06:54:43.789Z,978.98
2017-11-20T06:55:43.769Z,979.00
2017-11-20T06:56:43.749Z,978.92
2017-11-20T06:57:43.743Z,978.92
2017-11-20T06:58:43.713Z,978.90
2017-11-20T06:59:43.709Z,978.94
2017-11-20T07:00:43.689Z,978.93
2017-11-20T07:01:43.667Z,978.88
2017-11-20T07:02:43.652Z,978.85
2017-11-20T07:03:43.631Z,978.85
2017-11-20T07:04:43.608Z,978.80
2017-11-20T07:05:43.601Z,978.83
2017-11-20T07:06:43.576Z,978.82
2017-11-20T07:07:43.560Z,978.89
2017-11-20T07:08:43.545Z,978.94
2017-11-20T07:09:43.524Z,978.99
2017-11-20T07:10:43.509Z,979.03
2017-11-20T07:11:43.491Z,979.02
2017-11-20T07:12:43.480Z,979.07
2017-11-20T07:13:43.461Z,979.02
2017-11-20T07:14:43.440Z,979.03
2017-11-20T07:15:43.437Z,979.00
2017-11-20T07:16:43.411Z,978.98
2017-11-20T07:17:43.399Z,979.00
2017-11-20T07:18:43.374Z,978.99
2017-11-20T07:19:43.360Z,978.98
2017-11-20T07:20:43.344Z,979.03
2017-11-20T07:21:43.318Z,978.99
2017-11-20T07:22:43.315Z,979.05
2017-11-20T07:23:43.293Z,979.06
2017-11-20T07:24:43.275Z,979.10
2017-11-20T07:25:43.250Z,979.16
2017-11-20T07:26:43.240Z,979.12
2017-11-20T07:27:43.224Z,979.14
2017-11-20T07:28:43.207Z,979.09
2017-11-20T07:29:43.181Z,979.09
2017-11-20T07:30:43.170Z,979.00
2017-11-20T07:31:43.157Z,979.00
2017-11-20T07:32:43.138Z,979.02
2017-11-20T07:33:43.112Z,979.04
2017-11-20T07:34:43.095Z,979.02
2017-11-20T07:35:43.078Z,978.98
2017-11-20T07:36:43.061Z,978.94
2017-11-20T07:37:43.044Z,978.97
2017-11-20T07:38:43.027Z,978.98
2017-11-20T07:39:43.016Z,979.01
2017-11-20T07:40:42.998Z,979.05
2017-11-20T07:41:42.990Z,979.03
2017-11-20T07:42:42.970Z,979.01
2017-11-20T07:43:42.943Z,979.02
2017-11-20T07:44:42.931Z,979.08
2017-11-20T07:45:42.918Z,979.07
2017-11-20T07:46:42.891Z,979.07
2017-11-20T07:47:42.877Z,979.03
2017-11-20T07:48:42.866Z,979.07
2017-11-20T07:49:42.849Z,979.07
2017-11-20T07:50:42.824Z,979.04
2017-11-20T07:51:42.814Z,979.07
2017-11-20T07:52:42.792Z,979.03
2017-11-20T07:53:42.775Z,979.10
2017-11-20T07:54:42.756Z,979.06
2017-11-20T07:55:42.752Z,979.10
2017-11-20T07:56:42.737Z,979.12
2017-11-20T07:57:42.706Z,979.15
2017-11-20T07:58:42.688Z,979.14
2017-11-20T07:59:42.677Z,979.18
2017-11-20T08:00:42.672Z,979.12
2017-11-20T08:01:42.672Z,979.11
2017-11-20T08:02:42.623Z,979.08
2017-11-20T08:03:42.615Z,979.04
2017-11-20T08:04:42.587Z,979.05
2017-11-20T08:05:42.577Z,979.04
2017-11-20T08:06:42.555Z,979.03
2017-11-20T08:07:42.536Z,978.99
2017-11-20T08:08:42.525Z,978.99
2017-11-20T08:09:42.507Z,978.97
2017-11-20T08:10:42.485Z,978.98
2017-11-20T08:11:42.476Z,978.93
2017-11-20T08:12:42.464Z,978.93
2017-11-20T08:13:42.437Z,978.86
2017-11-20T08:14:42.419Z,978.83
2017-11-20T08:15:42.401Z,978.80
2017-11-20T08:16:42.385Z,978.78
2017-11-20T08:17:42.386Z,978.76
2017-11-20T08:18:42.354Z,978.79
2017-11-20T08:19:42.346Z,978.77
2017-11-20T08:20:42.320Z,978.79
2017-11-20T08:21:42.310Z,978.83
2017-11-20T08:22:42.296Z,978.88
2017-11-20T08:23:42.278Z,978.91
2017-11-20T08:24:42.260Z,978.94
2017-11-20T08:25:42.238Z,978.98
2017-11-20T08:26:42.221Z,979.03
2017-11-20T08:27:42.209Z,979.02
2017-11-20T08:28:42.191Z,979.02
2017-11-20T08:29:42.174Z,979.04
2017-11-20T08:30:42.159Z,979.06
2017-11-20T08:31:42.143Z,979.07
2017-11-20T08:32:42.122Z,979.05
2017-11-20T08:33:42.104Z,979.03
2017-11-20T08:34:42.095Z,979.09
2017-11-20T08:35:42.091Z,979.13
2017-11-20T08:36:42.055Z,979.15
2017-11-20T08:37:42.044Z,979.15
2017-11-20T08:38:42.029Z,979.10
2017-11-20T08:39:42.016Z,979.12
2017-11-20T08:40:41.991Z,979.19
2017-11-20T08:41:41.974Z,979.22
2017-11-20T08:42:41.963Z,979.19
2017-11-20T08:43:41.942Z,979.23
2017-11-20T08:44:41.927Z,979.23
2017-11-20T08:45:41.909Z,979.25
2017-11-20T08:46:41.904Z,979.32
2017-11-20T08:47:41.877Z,979.29
2017-11-20T08:48:41.866Z,979.30
2017-11-20T08:49:41.844Z,979.29
2017-11-20T08:50:41.829Z,979.25
2017-11-20T08:51:41.820Z,979.30
2017-11-20T08:52:41.805Z,979.27
2017-11-20T08:53:41.781Z,979.33
2017-11-20T08:54:41.765Z,979.27
2017-11-20T08:55:41.758Z,979.28
2017-11-20T08:56:41.734Z,979.26
2017-11-20T08:57:41.716Z,979.25
2017-11-20T08:58:41.699Z,979.25
2017-11-20T08:59:41.682Z,979.24
2017-11-20T09:00:41.666Z,979.23
2017-11-20T09:01:41.658Z,979.24
2017-11-20T09:02:41.634Z,979.20
2017-11-20T09:03:41.616Z,979.27
2017-11-20T09:04:41.607Z,979.21
2017-11-20T09:05:41.585Z,979.20
2017-11-20T09:06:41.573Z,979.24
2017-11-20T09:07:41.558Z,979.21
2017-11-20T09:08:41.536Z,979.27
2017-11-20T09:09:41.521Z,979.26
2017-11-20T09:10:41.504Z,979.25
2017-11-20T09:11:41.497Z,979.20
2017-11-20T09:12:41.471Z,979.19
2017-11-20T09:13:41.461Z,979.23
2017-11-20T09:14:41.444Z,979.24
2017-11-20T09:15:41.423Z,979.25
2017-11-20T09:16:41.406Z,979.23
2017-11-20T09:17:41.389Z,979.27
2017-11-20T09:18:41.384Z,979.27
2017-11-20T09:19:41.358Z,979.26
2017-11-20T09:20:41.341Z,979.24
2017-11-20T09:21:41.330Z,979.25
2017-11-20T09:22:41.309Z,979.26
2017-11-20T09:23:41.292Z,979.29
2017-11-20T09:24:41.278Z,979.33
2017-11-20T09:25:41.263Z,979.34
2017-11-20T09:26:41.262Z,979.33
2017-11-20T09:27:41.241Z,979.34
2017-11-20T09:28:41.220Z,979.34
2017-11-20T09:29:41.195Z,979.37
2017-11-20T09:30:41.180Z,979.38
2017-11-20T09:31:41.164Z,979.35
2017-11-20T09:32:41.148Z,979.40
2017-11-20T09:33:41.133Z,979.40
2017-11-20T09:34:41.116Z,979.42
2017-11-20T09:35:41.115Z,979.41
2017-11-20T09:36:41.085Z,979.44
2017-11-20T09:37:41.068Z,979.42
2017-11-20T09:38:41.058Z,979.45
2017-11-20T09:39:41.043Z,979.47
2017-11-20T09:40:41.030Z,979.46
2017-11-20T09:41:41.019Z,979.50
2017-11-20T09:42:40.989Z,979.54
2017-11-20T09:43:40.986Z,979.52
2017-11-20T09:44:40.958Z,979.52
2017-11-20T09:45:40.950Z,979.47
2017-11-20T09:46:40.927Z,979.41
2017-11-20T09:47:40.908Z,979.41
2017-11-20T09:48:40.901Z,979.33
2017-11-20T09:49:40.889Z,979.38
2017-11-20T09:50:40.872Z,979.34
2017-11-20T09:51:40.845Z,979.33
2017-11-20T09:52:40.831Z,979.40
2017-11-20T09:53:40.827Z,979.41
2017-11-20T09:54:40.797Z,979.47
2017-11-20T09:55:40.782Z,979.48
2017-11-20T09:56:40.769Z,979.47
2017-11-20T09:57:40.758Z,979.42
2017-11-20T09:58:40.740Z,979.40
2017-11-20T09:59:40.726Z,979.34
2017-11-20T10:00:40.704Z,979.41
2017-11-20T10:01:40.695Z,979.42
2017-11-20T10:02:40.679Z,979.46
2017-11-20T10:03:40.656Z,979.44
2017-11-20T10:04:40.642Z,979.44
2017-11-20T10:05:40.642Z,979.44
2017-11-20T10:06:40.623Z,979.44
2017-11-20T10:07:40.596Z,979.42
2017-11-20T10:08:40.583Z,979.41
2017-11-20T10:09:40.562Z,979.40
2017-11-20T10:10:40.561Z,979.39
2017-11-20T10:11:40.546Z,979.42
2017-11-20T10:12:40.515Z,979.39
2017-11-20T10:13:40.501Z,979.41
2017-11-20T10:14:40.485Z,979.36
2017-11-20T10:15:40.481Z,979.39
2017-11-20T10:16:40.468Z,979.39
2017-11-20T10:17:40.443Z,979.39
2017-11-20T10:18:40.425Z,979.35
2017-11-20T10:19:40.417Z,979.24
2017-11-20T10:20:40.412Z,979.27
2017-11-20T10:21:40.378Z,979.28
2017-11-20T10:22:40.361Z,979.27
2017-11-20T10:23:40.346Z,979.26
2017-11-20T10:24:40.346Z,979.27
2017-11-20T10:25:40.316Z,979.24
2017-11-20T10:26:40.302Z,979.22
2017-11-20T10:27:40.285Z,979.20
2017-11-20T10:28:40.275Z,979.19
2017-11-20T10:29:40.255Z,979.23
2017-11-20T10:30:40.242Z,979.27
2017-11-20T10:31:40.230Z,979.28
2017-11-20T10:32:40.212Z,979.27
2017-11-20T10:33:40.202Z,979.25
2017-11-20T10:34:40.189Z,979.23
2017-11-20T10:35:40.171Z,979.21
2017-11-20T10:36:40.148Z,979.24
2017-11-20T10:37:40.143Z,979.21
2017-11-20T10:38:40.120Z,979.20
2017-11-20T10:39:40.103Z,979.18
2017-11-20T10:40:40.092Z,979.16
2017-11-20T10:41:40.072Z,979.12
2017-11-20T10:42:40.069Z,979.09
2017-11-20T10:43:40.044Z,979.06
2017-11-20T10:44:40.034Z,979.03
2017-11-20T10:45:40.019Z,978.98
2017-11-20T10:46:39.997Z,979.00
2017-11-20T10:47:39.986Z,979.02
2017-11-20T10:48:39.969Z,979.08
2017-11-20T10:49:39.961Z,979.04
2017-11-20T10:50:39.939Z,979.06
2017-11-20T10:51:39.928Z,979.01
2017-11-20T10:52:39.909Z,979.01
2017-11-20T10:53:39.893Z,979.03
2017-11-20T10:54:39.879Z,979.05
2017-11-20T10:55:39.868Z,979.02
2017-11-20T10:56:39.857Z,979.03
2017-11-20T10:57:39.835Z,979.03
2017-11-20T10:58:39.831Z,979.06
2017-11-20T10:59:39.808Z,979.09
2017-11-20T11:00:39.801Z,979.00
2017-11-20T11:01:39.780Z,978.97
2017-11-20T11:02:39.771Z,978.94
2017-11-20T11:03:39.752Z,978.94
2017-11-20T11:04:39.730Z,978.95
2017-11-20T11:05:39.722Z,978.94
2017-11-20T11:06:39.699Z,978.99
2017-11-20T11:07:39.692Z,978.98
2017-11-20T11:08:39.668Z,978.92
2017-11-20T11:09:39.651Z,978.94
2017-11-20T11:10:39.637Z,978.91
2017-11-20T11:11:39.635Z,978.93
2017-11-20T11:12:39.608Z,978.97
2017-11-20T11:13:39.596Z,978.94
2017-11-20T11:14:39.586Z,978.92
2017-11-20T11:15:39.567Z,978.94
2017-11-20T11:16:39.555Z,978.91
2017-11-20T11:17:39.538Z,978.90
2017-11-20T11:18:39.531Z,978.89
2017-11-20T11:19:39.502Z,978.87
2017-11-20T11:20:39.486Z,978.85
2017-11-20T11:21:39.482Z,978.83
2017-11-20T11:22:39.457Z,978.87
2017-11-20T11:23:39.441Z,978.90
2017-11-20T11:24:39.436Z,978.89
2017-11-20T11:25:39.416Z,978.86
2017-11-20T11:26:39.397Z,978.84
2017-11-20T11:27:39.382Z,978.82
2017-11-20T11:28:39.368Z,978.87
2017-11-20T11:29:39.352Z,978.91
2017-11-20T11:30:39.337Z,978.91
2017-11-20T11:31:39.326Z,978.96
2017-11-20T11:32:39.314Z,978.98
2017-11-20T11:33:39.293Z,978.90
2017-11-20T11:34:39.282Z,978.88
2017-11-20T11:35:39.262Z,978.88
2017-11-20T11:36:39.248Z,978.81
2017-11-20T11:37:39.231Z,978.74
2017-11-20T11:38:39.225Z,978.67
2017-11-20T11:39:39.208Z,978.61
2017-11-20T11:40:39.194Z,978.55
2017-11-20T11:41:39.173Z,978.50
2017-11-20T11:42:39.157Z,978.54
2017-11-20T11:43:39.144Z,978.55
2017-11-20T11:44:39.134Z,978.55
2017-11-20T11:45:39.121Z,978.61
2017-11-20T11:46:39.109Z,978.62
2017-11-20T11:47:39.089Z,978.64
2017-11-20T11:48:39.069Z,978.57
2017-11-20T11:49:39.059Z,978.56
2017-11-20T11:50:39.045Z,978.54
2017-11-20T11:51:39.024Z,978.51
2017-11-20T11:52:39.030Z,978.47
2017-11-20T11:53:38.997Z,978.51
2017-11-20T11:54:38.999Z,978.48
2017-11-20T11:55:38.967Z,978.52
2017-11-20T11:56:38.953Z,978.47
2017-11-20T11:57:38.940Z,978.48
2017-11-20T11:58:38.937Z,978.50
2017-11-20T11:59:38.907Z,978.46
2017-11-20T12:00:38.903Z,978.46
2017-11-20T12:01:38.877Z,978.42
2017-11-20T12:02:38.871Z,978.41
2017-11-20T12:03:38.855Z,978.45
2017-11-20T12:04:38.834Z,978.42
2017-11-20T12:05:38.820Z,978.37
2017-11-20T12:06:38.818Z,978.33
2017-11-20T12:07:38.793Z,978.29
2017-11-20T12:08:38.776Z,978.25
2017-11-20T12:09:38.768Z,978.27
2017-11-20T12:10:38.749Z,978.20
2017-11-20T12:11:38.738Z,978.13
2017-11-20T12:12:38.720Z,978.06
2017-11-20T12:13:38.709Z,978.01
2017-11-20T12:14:38.697Z,978.01
2017-11-20T12:15:38.687Z,978.03
2017-11-20T12:16:38.669Z,978.03
2017-11-20T12:17:38.657Z,978.02
2017-11-20T12:18:38.631Z,978.00
2017-11-20T12:19:38.618Z,978.02
2017-11-20T12:20:38.611Z,978.05
2017-11-20T12:21:38.587Z,978.10
2017-11-20T12:22:38.577Z,978.13
2017-11-20T12:23:38.564Z,978.04
2017-11-20T12:24:38.556Z,978.02
2017-11-20T12:25:38.541Z,978.06
2017-11-20T12:26:38.519Z,978.08
2017-11-20T12:27:38.503Z,978.10
2017-11-20T12:28:38.498Z,978.00